createdAt,value
2015-05-09T00:00:07.222Z,100965
2015-05-09T00:00:25.472Z,100959
2015-05-09T00:00:43.740Z,100959
2015-05-09T00:01:01.990Z,100956
2015-05-09T00:01:20.240Z,100959
2015-05-09T00:01:38.508Z,100956
2015-05-09T00:01:56.773Z,100948
2015-05-09T00:02:15.023Z,100956
2015-05-09T00:02:33.292Z,100950
2015-05-09T00:02:51.558Z,100965
2015-05-09T00:03:09.792Z,100953
2015-05-09T00:03:28.042Z,100953
2015-05-09T00:03:46.310Z,100959
2015-05-09T00:04:04.560Z,100962
2015-05-09T00:04:22.810Z,100959
2015-05-09T00:04:41.078Z,100950
2015-05-09T00:04:59.344Z,100953
2015-05-09T00:05:17.578Z,100956
2015-05-09T00:05:35.830Z,100956
2015-05-09T00:05:54.096Z,100959
2015-05-09T00:06:12.346Z,100959
2015-05-09T00:06:30.596Z,100956
2015-05-09T00:06:48.864Z,100950
2015-05-09T00:07:07.114Z,100956
2015-05-09T00:07:25.364Z,100953
2015-05-09T00:07:43.616Z,100945
2015-05-09T00:08:01.881Z,100956
2015-05-09T00:08:20.131Z,100956
2015-05-09T00:08:38.384Z,100962
2015-05-09T00:08:56.650Z,100945
2015-05-09T00:09:14.900Z,100950
2015-05-09T00:09:33.150Z,100965
2015-05-09T00:09:51.417Z,100956
2015-05-09T00:10:09.667Z,100950
2015-05-09T00:10:27.917Z,100956
2015-05-09T00:10:46.170Z,100956
2015-05-09T00:11:04.436Z,100953
2015-05-09T00:11:22.686Z,100956
2015-05-09T00:11:40.938Z,100959
2015-05-09T00:11:59.188Z,100956
2015-05-09T00:12:17.454Z,100950
2015-05-09T00:12:35.704Z,100947
2015-05-09T00:12:53.971Z,100953
2015-05-09T00:13:12.221Z,100950
2015-05-09T00:13:30.487Z,100956
2015-05-09T00:13:48.737Z,100965
2015-05-09T00:14:06.989Z,100950
2015-05-09T00:14:25.239Z,100945
2015-05-09T00:14:43.489Z,100948
2015-05-09T00:15:01.758Z,100956
2015-05-09T00:15:20.008Z,100956
2015-05-09T00:15:38.273Z,100945
2015-05-09T00:15:56.523Z,100947
2015-05-09T00:16:14.775Z,100945
2015-05-09T00:16:33.025Z,100950
2015-05-09T00:16:51.275Z,100942
2015-05-09T00:17:09.528Z,100945
2015-05-09T00:17:27.794Z,100950
2015-05-09T00:17:46.044Z,100942
2015-05-09T00:18:04.294Z,100936
2015-05-09T00:18:22.547Z,100950
2015-05-09T00:18:40.812Z,100945
2015-05-09T00:18:59.062Z,100950
2015-05-09T00:19:17.314Z,100945
2015-05-09T00:19:35.580Z,100947
2015-05-09T00:19:53.830Z,100945
2015-05-09T00:20:12.082Z,100947
2015-05-09T00:20:30.348Z,100947
2015-05-09T00:20:48.598Z,100945
2015-05-09T00:21:06.863Z,100945
2015-05-09T00:21:25.115Z,100936
2015-05-09T00:21:43.365Z,100945
2015-05-09T00:22:01.615Z,100950
2015-05-09T00:22:19.868Z,100939
2015-05-09T00:22:38.134Z,100942
2015-05-09T00:22:56.384Z,100945
2015-05-09T00:23:14.636Z,100947
2015-05-09T00:23:32.886Z,100945
2015-05-09T00:23:51.152Z,100942
2015-05-09T00:24:09.402Z,100945
2015-05-09T00:24:27.654Z,100945
2015-05-09T00:24:45.919Z,100936
2015-05-09T00:25:04.169Z,100945
2015-05-09T00:25:22.422Z,100942
2015-05-09T00:25:40.688Z,100936
2015-05-09T00:25:58.938Z,100942
2015-05-09T00:26:17.190Z,100936
2015-05-09T00:26:35.455Z,100945
2015-05-09T00:26:53.705Z,100942
2015-05-09T00:27:11.971Z,100945
2015-05-09T00:27:30.240Z,100942
2015-05-09T00:27:48.490Z,100945
2015-05-09T00:28:06.740Z,100936
2015-05-09T00:28:24.992Z,100939
2015-05-09T00:28:43.242Z,100936
2015-05-09T00:29:01.507Z,100933
2015-05-09T00:29:19.759Z,100942
2015-05-09T00:29:38.009Z,100942
2015-05-09T00:29:56.259Z,100939
2015-05-09T00:30:14.509Z,100945
2015-05-09T00:30:32.777Z,100945
2015-05-09T00:30:51.027Z,100930
2015-05-09T00:31:09.277Z,100933
2015-05-09T00:31:27.546Z,100942
2015-05-09T00:31:45.796Z,100942
2015-05-09T00:32:04.046Z,100936
2015-05-09T00:32:22.313Z,100939
2015-05-09T00:32:40.563Z,100939
2015-05-09T00:32:58.813Z,100936
2015-05-09T00:33:17.063Z,100939
2015-05-09T00:33:35.332Z,100942
2015-05-09T00:33:53.582Z,100936
2015-05-09T00:34:11.847Z,100945
2015-05-09T00:34:30.097Z,100942
2015-05-09T00:34:48.365Z,100942
2015-05-09T00:35:06.631Z,100942
2015-05-09T00:35:24.865Z,100942
2015-05-09T00:35:43.118Z,100939
2015-05-09T00:36:01.384Z,100942
2015-05-09T00:36:19.634Z,100939
2015-05-09T00:36:37.899Z,100939
2015-05-09T00:36:56.151Z,100936
2015-05-09T00:37:14.401Z,100939
2015-05-09T00:37:32.683Z,100947
2015-05-09T00:37:50.919Z,100942
2015-05-09T00:38:09.185Z,100927
2015-05-09T00:38:27.435Z,100945
2015-05-09T00:38:45.687Z,100945
2015-05-09T00:39:03.952Z,100942
2015-05-09T00:39:22.202Z,100945
2015-05-09T00:39:40.452Z,100933
2015-05-09T00:39:58.721Z,100939
2015-05-09T00:40:16.971Z,100945
2015-05-09T00:40:35.221Z,100945
2015-05-09T00:40:53.473Z,100939
2015-05-09T00:41:11.738Z,100933
2015-05-09T00:41:29.988Z,100942
2015-05-09T00:41:48.257Z,100945
2015-05-09T00:42:06.507Z,100945
2015-05-09T00:42:24.757Z,100939
2015-05-09T00:42:43.007Z,100939
2015-05-09T00:43:01.276Z,100939
2015-05-09T00:43:19.526Z,100936
2015-05-09T00:43:37.791Z,100936
2015-05-09T00:43:56.042Z,100939
2015-05-09T00:44:14.292Z,100945
2015-05-09T00:44:32.542Z,100942
2015-05-09T00:44:50.811Z,100930
2015-05-09T00:45:09.061Z,100942
2015-05-09T00:45:27.311Z,100936
2015-05-09T00:45:45.577Z,100927
2015-05-09T00:46:03.829Z,100930
2015-05-09T00:46:22.079Z,100936
2015-05-09T00:46:40.329Z,100939
2015-05-09T00:46:58.596Z,100936
2015-05-09T00:47:16.846Z,100930
2015-05-09T00:47:35.112Z,100930
2015-05-09T00:47:53.365Z,100936
2015-05-09T00:48:11.615Z,100933
2015-05-09T00:48:29.865Z,100930
2015-05-09T00:48:48.130Z,100933
2015-05-09T00:49:06.382Z,100942
2015-05-09T00:49:24.632Z,100936
2015-05-09T00:49:42.882Z,100942
2015-05-09T00:50:01.151Z,100927
2015-05-09T00:50:19.401Z,100942
2015-05-09T00:50:37.651Z,100945
2015-05-09T00:50:55.903Z,100936
2015-05-09T00:51:14.169Z,100942
2015-05-09T00:51:32.419Z,100939
2015-05-09T00:51:50.669Z,100942
2015-05-09T00:52:08.922Z,100939
2015-05-09T00:52:27.187Z,100936
2015-05-09T00:52:45.437Z,100939
2015-05-09T00:53:03.689Z,100927
2015-05-09T00:53:21.955Z,100933
2015-05-09T00:53:40.205Z,100936
2015-05-09T00:53:58.455Z,100936
2015-05-09T00:54:16.724Z,100939
2015-05-09T00:54:34.974Z,100936
2015-05-09T00:54:53.224Z,100939
2015-05-09T00:55:11.489Z,100942
2015-05-09T00:55:29.757Z,100930
2015-05-09T00:55:48.007Z,100933
2015-05-09T00:56:06.257Z,100947
2015-05-09T00:56:24.509Z,100939
2015-05-09T00:56:42.759Z,100933
2015-05-09T00:57:01.024Z,100933
2015-05-09T00:57:19.274Z,100936
2015-05-09T00:57:37.543Z,100936
2015-05-09T00:57:55.793Z,100933
2015-05-09T00:58:14.059Z,100930
2015-05-09T00:58:32.311Z,100930
2015-05-09T00:58:50.576Z,100936
2015-05-09T00:59:08.826Z,100936
2015-05-09T00:59:27.079Z,100936
2015-05-09T00:59:45.329Z,100922
2015-05-09T01:00:03.579Z,100936
2015-05-09T01:00:21.845Z,100936
2015-05-09T01:00:40.097Z,100930
2015-05-09T01:00:58.363Z,100922
2015-05-09T01:01:16.613Z,100927
2015-05-09T01:01:34.880Z,100933
2015-05-09T01:01:53.130Z,100942
2015-05-09T01:02:11.396Z,100933
2015-05-09T01:02:29.663Z,100933
2015-05-09T01:02:47.913Z,100933
2015-05-09T01:03:06.163Z,100927
2015-05-09T01:03:24.413Z,100924
2015-05-09T01:03:42.666Z,100930
2015-05-09T01:04:00.932Z,100930
2015-05-09T01:04:19.182Z,100936
2015-05-09T01:04:37.435Z,100930
2015-05-09T01:04:55.685Z,100924
2015-05-09T01:05:13.951Z,100930
2015-05-09T01:05:32.203Z,100924
2015-05-09T01:05:50.453Z,100930
2015-05-09T01:06:08.703Z,100936
2015-05-09T01:06:26.968Z,100933
2015-05-09T01:06:45.220Z,100924
2015-05-09T01:07:03.470Z,100930
2015-05-09T01:07:21.736Z,100930
2015-05-09T01:07:39.989Z,100919
2015-05-09T01:07:58.255Z,100930
2015-05-09T01:08:16.505Z,100930
2015-05-09T01:08:34.600Z,100924
2015-05-09T01:08:52.866Z,100930
2015-05-09T01:09:11.116Z,100924
2015-05-09T01:09:29.366Z,100930
2015-05-09T01:09:47.618Z,100924
2015-05-09T01:10:05.868Z,100930
2015-05-09T01:10:24.118Z,100936
2015-05-09T01:10:42.386Z,100927
2015-05-09T01:11:00.636Z,100933
2015-05-09T01:11:18.901Z,100933
2015-05-09T01:11:37.153Z,100927
2015-05-09T01:11:55.403Z,100927
2015-05-09T01:12:13.653Z,100933
2015-05-09T01:12:31.919Z,100936
2015-05-09T01:12:50.172Z,100927
2015-05-09T01:13:08.437Z,100927
2015-05-09T01:13:26.687Z,100939
2015-05-09T01:13:44.940Z,100933
2015-05-09T01:14:03.190Z,100927
2015-05-09T01:14:21.456Z,100930
2015-05-09T01:14:39.706Z,100933
2015-05-09T01:14:57.974Z,100933
2015-05-09T01:15:16.224Z,100922
2015-05-09T01:15:34.474Z,100927
2015-05-09T01:15:52.741Z,100927
2015-05-09T01:16:11.007Z,100936
2015-05-09T01:16:29.257Z,100922
2015-05-09T01:16:47.538Z,100922
2015-05-09T01:17:05.760Z,100927
2015-05-09T01:17:24.010Z,100922
2015-05-09T01:17:42.276Z,100933
2015-05-09T01:18:00.528Z,100930
2015-05-09T01:18:18.778Z,100936
2015-05-09T01:18:37.028Z,100927
2015-05-09T01:18:55.293Z,100927
2015-05-09T01:19:13.546Z,100933
2015-05-09T01:19:31.796Z,100922
2015-05-09T01:19:50.046Z,100927
2015-05-09T01:20:08.314Z,100925
2015-05-09T01:20:26.564Z,100925
2015-05-09T01:20:44.814Z,100927
2015-05-09T01:21:03.066Z,100925
2015-05-09T01:21:21.331Z,100927
2015-05-09T01:21:39.581Z,100922
2015-05-09T01:21:57.847Z,100930
2015-05-09T01:22:16.115Z,100925
2015-05-09T01:22:34.365Z,100927
2015-05-09T01:22:52.615Z,100933
2015-05-09T01:23:10.868Z,100927
2015-05-09T01:23:29.133Z,100922
2015-05-09T01:23:47.383Z,100924
2015-05-09T01:24:05.636Z,100927
2015-05-09T01:24:23.886Z,100922
2015-05-09T01:24:42.136Z,100925
2015-05-09T01:25:00.402Z,100922
2015-05-09T01:25:18.654Z,100927
2015-05-09T01:25:36.904Z,100925
2015-05-09T01:25:55.170Z,100927
2015-05-09T01:26:13.422Z,100925
2015-05-09T01:26:31.672Z,100910
2015-05-09T01:26:49.922Z,100922
2015-05-09T01:27:08.190Z,100916
2015-05-09T01:27:26.440Z,100936
2015-05-09T01:27:44.690Z,100916
2015-05-09T01:28:02.940Z,100924
2015-05-09T01:28:21.208Z,100933
2015-05-09T01:28:39.458Z,100919
2015-05-09T01:28:57.723Z,100922
2015-05-09T01:29:15.975Z,100922
2015-05-09T01:29:34.225Z,100919
2015-05-09T01:29:52.491Z,100922
2015-05-09T01:30:10.743Z,100922
2015-05-09T01:30:28.993Z,100924
2015-05-09T01:30:47.243Z,100924
2015-05-09T01:31:05.509Z,100913
2015-05-09T01:31:23.762Z,100924
2015-05-09T01:31:42.012Z,100939
2015-05-09T01:32:00.277Z,100916
2015-05-09T01:32:18.529Z,100924
2015-05-09T01:32:36.779Z,100936
2015-05-09T01:32:55.045Z,100924
2015-05-09T01:33:13.298Z,100924
2015-05-09T01:33:31.548Z,100919
2015-05-09T01:33:49.814Z,100913
2015-05-09T01:34:08.048Z,100919
2015-05-09T01:34:26.316Z,100922
2015-05-09T01:34:44.566Z,100925
2015-05-09T01:35:02.816Z,100930
2015-05-09T01:35:21.083Z,100924
2015-05-09T01:35:39.333Z,100930
2015-05-09T01:35:57.599Z,100927
2015-05-09T01:36:15.849Z,100927
2015-05-09T01:36:34.102Z,100916
2015-05-09T01:36:52.352Z,100922
2015-05-09T01:37:10.617Z,100927
2015-05-09T01:37:28.870Z,100913
2015-05-09T01:37:47.120Z,100916
2015-05-09T01:38:05.386Z,100919
2015-05-09T01:38:23.636Z,100925
2015-05-09T01:38:41.888Z,100919
2015-05-09T01:39:00.138Z,100922
2015-05-09T01:39:18.388Z,100922
2015-05-09T01:39:36.656Z,100927
2015-05-09T01:39:54.921Z,100919
2015-05-09T01:40:13.171Z,100919
2015-05-09T01:40:31.424Z,100922
2015-05-09T01:40:49.690Z,100927
2015-05-09T01:41:07.940Z,100925
2015-05-09T01:41:26.190Z,100922
2015-05-09T01:41:44.442Z,100924
2015-05-09T01:42:02.708Z,100919
2015-05-09T01:42:20.958Z,100913
2015-05-09T01:42:39.210Z,100922
2015-05-09T01:42:57.475Z,100916
2015-05-09T01:43:15.725Z,100919
2015-05-09T01:43:33.977Z,100924
2015-05-09T01:43:52.227Z,100916
2015-05-09T01:44:10.477Z,100919
2015-05-09T01:44:28.743Z,100922
2015-05-09T01:44:46.996Z,100922
2015-05-09T01:45:05.246Z,100919
2015-05-09T01:45:23.511Z,100924
2015-05-09T01:45:41.763Z,100919
2015-05-09T01:46:00.013Z,100910
2015-05-09T01:46:18.279Z,100916
2015-05-09T01:46:36.531Z,100916
2015-05-09T01:46:54.797Z,100919
2015-05-09T01:47:13.047Z,100916
2015-05-09T01:47:31.297Z,100919
2015-05-09T01:47:49.565Z,100919
2015-05-09T01:48:07.815Z,100916
2015-05-09T01:48:26.065Z,100916
2015-05-09T01:48:44.333Z,100910
2015-05-09T01:49:02.583Z,100913
2015-05-09T01:49:20.849Z,100919
2015-05-09T01:49:39.101Z,100910
2015-05-09T01:49:57.366Z,100919
2015-05-09T01:50:15.616Z,100922
2015-05-09T01:50:33.866Z,100922
2015-05-09T01:50:52.135Z,100922
2015-05-09T01:51:10.385Z,100913
2015-05-09T01:51:28.650Z,100919
2015-05-09T01:51:46.902Z,100919
2015-05-09T01:52:05.152Z,100913
2015-05-09T01:52:23.402Z,100919
2015-05-09T01:52:41.670Z,100925
2015-05-09T01:52:59.920Z,100913
2015-05-09T01:53:18.170Z,100922
2015-05-09T01:53:36.420Z,100916
2015-05-09T01:53:54.689Z,100910
2015-05-09T01:54:12.939Z,100927
2015-05-09T01:54:31.204Z,100927
2015-05-09T01:54:49.456Z,100922
2015-05-09T01:55:07.706Z,100916
2015-05-09T01:55:25.972Z,100913
2015-05-09T01:55:44.224Z,100922
2015-05-09T01:56:02.490Z,100919
2015-05-09T01:56:20.740Z,100925
2015-05-09T01:56:38.990Z,100922
2015-05-09T01:56:57.102Z,100919
2015-05-09T01:57:15.352Z,100913
2015-05-09T01:57:33.602Z,100907
2015-05-09T01:57:51.852Z,100913
2015-05-09T01:58:10.104Z,100925
2015-05-09T01:58:28.370Z,100919
2015-05-09T01:58:46.620Z,100919
2015-05-09T01:59:04.888Z,100922
2015-05-09T01:59:23.138Z,100910
2015-05-09T01:59:41.388Z,100916
2015-05-09T01:59:59.638Z,100927
2015-05-09T02:00:17.906Z,100922
2015-05-09T02:00:36.156Z,100922
2015-05-09T02:00:54.406Z,100916
2015-05-09T02:01:12.674Z,100910
2015-05-09T02:01:30.924Z,100919
2015-05-09T02:01:49.174Z,100916
2015-05-09T02:02:07.442Z,100913
2015-05-09T02:02:25.692Z,100907
2015-05-09T02:02:43.958Z,100916
2015-05-09T02:03:02.208Z,100907
2015-05-09T02:03:20.461Z,100925
2015-05-09T02:03:38.726Z,100925
2015-05-09T02:03:56.976Z,100925
2015-05-09T02:04:15.228Z,100919
2015-05-09T02:04:33.494Z,100922
2015-05-09T02:04:51.744Z,100919
2015-05-09T02:05:09.996Z,100910
2015-05-09T02:05:28.246Z,100916
2015-05-09T02:05:46.496Z,100910
2015-05-09T02:06:04.762Z,100922
2015-05-09T02:06:23.015Z,100927
2015-05-09T02:06:41.265Z,100919
2015-05-09T02:06:59.515Z,100916
2015-05-09T02:07:17.782Z,100927
2015-05-09T02:07:36.032Z,100919
2015-05-09T02:07:54.282Z,100916
2015-05-09T02:08:12.534Z,100907
2015-05-09T02:08:30.800Z,100910
2015-05-09T02:08:49.050Z,100922
2015-05-09T02:09:07.300Z,100916
2015-05-09T02:09:25.567Z,100910
2015-05-09T02:09:43.817Z,100924
2015-05-09T02:10:02.067Z,100924
2015-05-09T02:10:20.336Z,100910
2015-05-09T02:10:38.586Z,100919
2015-05-09T02:10:56.836Z,100913
2015-05-09T02:11:15.088Z,100913
2015-05-09T02:11:33.354Z,100913
2015-05-09T02:11:51.604Z,100922
2015-05-09T02:12:09.885Z,100913
2015-05-09T02:12:28.121Z,100922
2015-05-09T02:12:46.371Z,100916
2015-05-09T02:13:04.637Z,100910
2015-05-09T02:13:22.890Z,100919
2015-05-09T02:13:41.140Z,100916
2015-05-09T02:13:59.390Z,100916
2015-05-09T02:14:17.658Z,100924
2015-05-09T02:14:35.908Z,100925
2015-05-09T02:14:54.158Z,100919
2015-05-09T02:15:12.408Z,100922
2015-05-09T02:15:30.675Z,100913
2015-05-09T02:15:48.925Z,100919
2015-05-09T02:16:07.175Z,100927
2015-05-09T02:16:25.444Z,100925
2015-05-09T02:16:43.694Z,100919
2015-05-09T02:17:01.959Z,100919
2015-05-09T02:17:20.209Z,100922
2015-05-09T02:17:38.461Z,100922
2015-05-09T02:17:56.727Z,100919
2015-05-09T02:18:14.977Z,100913
2015-05-09T02:18:33.261Z,100927
2015-05-09T02:18:51.511Z,100919
2015-05-09T02:19:09.761Z,100924
2015-05-09T02:19:28.011Z,100924
2015-05-09T02:19:46.280Z,100919
2015-05-09T02:20:04.530Z,100924
2015-05-09T02:20:22.780Z,100924
2015-05-09T02:20:41.032Z,100919
2015-05-09T02:20:59.298Z,100924
2015-05-09T02:21:17.548Z,100924
2015-05-09T02:21:35.798Z,100922
2015-05-09T02:21:54.065Z,100916
2015-05-09T02:22:12.315Z,100919
2015-05-09T02:22:30.565Z,100916
2015-05-09T02:22:48.833Z,100919
2015-05-09T02:23:07.083Z,100904
2015-05-09T02:23:25.348Z,100927
2015-05-09T02:23:43.601Z,100919
2015-05-09T02:24:01.867Z,100919
2015-05-09T02:24:20.117Z,100913
2015-05-09T02:24:38.367Z,100907
2015-05-09T02:24:56.619Z,100919
2015-05-09T02:25:14.885Z,100916
2015-05-09T02:25:33.135Z,100907
2015-05-09T02:25:51.387Z,100913
2015-05-09T02:26:09.637Z,100919
2015-05-09T02:26:27.902Z,100919
2015-05-09T02:26:46.155Z,100910
2015-05-09T02:27:04.405Z,100901
2015-05-09T02:27:22.655Z,100901
2015-05-09T02:27:40.921Z,100904
2015-05-09T02:27:59.173Z,100901
2015-05-09T02:28:17.423Z,100907
2015-05-09T02:28:35.689Z,100907
2015-05-09T02:28:53.942Z,100913
2015-05-09T02:29:12.192Z,100907
2015-05-09T02:29:30.457Z,100919
2015-05-09T02:29:48.709Z,100913
2015-05-09T02:30:06.975Z,100910
2015-05-09T02:30:25.225Z,100901
2015-05-09T02:30:43.490Z,100913
2015-05-09T02:31:01.742Z,100904
2015-05-09T02:31:19.992Z,100902
2015-05-09T02:31:38.242Z,100907
2015-05-09T02:31:56.527Z,100910
2015-05-09T02:32:14.777Z,100893
2015-05-09T02:32:33.027Z,100907
2015-05-09T02:32:51.293Z,100901
2015-05-09T02:33:09.543Z,100907
2015-05-09T02:33:27.793Z,100901
2015-05-09T02:33:46.043Z,100907
2015-05-09T02:34:04.312Z,100907
2015-05-09T02:34:22.562Z,100899
2015-05-09T02:34:40.828Z,100901
2015-05-09T02:34:59.081Z,100907
2015-05-09T02:35:17.331Z,100916
2015-05-09T02:35:35.596Z,100907
2015-05-09T02:35:53.848Z,100901
2015-05-09T02:36:12.098Z,100901
2015-05-09T02:36:30.348Z,100907
2015-05-09T02:36:48.598Z,100907
2015-05-09T02:37:06.850Z,100907
2015-05-09T02:37:25.116Z,100904
2015-05-09T02:37:43.366Z,100910
2015-05-09T02:38:01.618Z,100907
2015-05-09T02:38:19.868Z,100907
2015-05-09T02:38:38.118Z,100904
2015-05-09T02:38:56.386Z,100901
2015-05-09T02:39:14.636Z,100904
2015-05-09T02:39:32.902Z,100910
2015-05-09T02:39:51.152Z,100899
2015-05-09T02:40:09.405Z,100907
2015-05-09T02:40:27.655Z,100907
2015-05-09T02:40:45.921Z,100907
2015-05-09T02:41:04.171Z,100899
2015-05-09T02:41:22.438Z,100896
2015-05-09T02:41:40.688Z,100899
2015-05-09T02:41:58.938Z,100901
2015-05-09T02:42:17.207Z,100896
2015-05-09T02:42:35.457Z,100901
2015-05-09T02:42:53.707Z,100901
2015-05-09T02:43:11.973Z,100907
2015-05-09T02:43:30.225Z,100907
2015-05-09T02:43:48.490Z,100910
2015-05-09T02:44:06.725Z,100904
2015-05-09T02:44:24.992Z,100904
2015-05-09T02:44:43.242Z,100901
2015-05-09T02:45:01.492Z,100896
2015-05-09T02:45:19.745Z,100901
2015-05-09T02:45:38.011Z,100910
2015-05-09T02:45:56.261Z,100907
2015-05-09T02:46:14.511Z,100916
2015-05-09T02:46:32.763Z,100910
2015-05-09T02:46:51.028Z,100910
2015-05-09T02:47:09.278Z,100901
2015-05-09T02:47:27.530Z,100904
2015-05-09T02:47:45.780Z,100904
2015-05-09T02:48:04.046Z,100901
2015-05-09T02:48:22.299Z,100899
2015-05-09T02:48:40.549Z,100907
2015-05-09T02:48:58.815Z,100904
2015-05-09T02:49:17.080Z,100901
2015-05-09T02:49:35.331Z,100901
2015-05-09T02:49:53.597Z,100913
2015-05-09T02:50:11.847Z,100896
2015-05-09T02:50:30.100Z,100896
2015-05-09T02:50:48.350Z,100901
2015-05-09T02:51:06.616Z,100901
2015-05-09T02:51:24.883Z,100910
2015-05-09T02:51:43.133Z,100907
2015-05-09T02:52:01.383Z,100910
2015-05-09T02:52:19.633Z,100910
2015-05-09T02:52:37.902Z,100907
2015-05-09T02:52:56.152Z,100902
2015-05-09T02:53:14.402Z,100902
2015-05-09T02:53:32.654Z,100890
2015-05-09T02:53:50.919Z,100901
2015-05-09T02:54:09.169Z,100899
2015-05-09T02:54:27.422Z,100907
2015-05-09T02:54:45.688Z,100907
2015-05-09T02:55:03.938Z,100901
2015-05-09T02:55:22.188Z,100910
2015-05-09T02:55:40.440Z,100904
2015-05-09T02:55:58.706Z,100896
2015-05-09T02:56:16.956Z,100913
2015-05-09T02:56:35.224Z,100916
2015-05-09T02:56:53.474Z,100907
2015-05-09T02:57:11.740Z,100910
2015-05-09T02:57:29.991Z,100916
2015-05-09T02:57:48.257Z,100910
2015-05-09T02:58:06.507Z,100925
2015-05-09T02:58:24.757Z,100919
2015-05-09T02:58:43.010Z,100916
2015-05-09T02:59:01.275Z,100910
2015-05-09T02:59:19.525Z,100913
2015-05-09T02:59:37.777Z,100916
2015-05-09T02:59:56.043Z,100922
2015-05-09T03:00:14.293Z,100919
2015-05-09T03:00:32.546Z,100910
2015-05-09T03:00:50.811Z,100922
2015-05-09T03:01:09.061Z,100913
2015-05-09T03:01:27.311Z,100919
2015-05-09T03:01:45.579Z,100913
2015-05-09T03:02:03.829Z,100913
2015-05-09T03:02:22.079Z,100927
2015-05-09T03:02:40.345Z,100919
2015-05-09T03:02:58.598Z,100916
2015-05-09T03:03:16.863Z,100927
2015-05-09T03:03:35.113Z,100919
2015-05-09T03:03:53.366Z,100907
2015-05-09T03:04:11.632Z,100913
2015-05-09T03:04:29.898Z,100922
2015-05-09T03:04:48.148Z,100919
2015-05-09T03:05:06.414Z,100916
2015-05-09T03:05:24.664Z,100922
2015-05-09T03:05:42.914Z,100922
2015-05-09T03:06:01.167Z,100913
2015-05-09T03:06:19.433Z,100916
2015-05-09T03:06:37.683Z,100913
2015-05-09T03:06:55.933Z,100925
2015-05-09T03:07:14.201Z,100916
2015-05-09T03:07:32.295Z,100922
2015-05-09T03:07:50.545Z,100913
2015-05-09T03:08:08.797Z,100922
2015-05-09T03:08:27.047Z,100916
2015-05-09T03:08:45.313Z,100916
2015-05-09T03:09:03.563Z,100922
2015-05-09T03:09:21.831Z,100922
2015-05-09T03:09:40.081Z,100916
2015-05-09T03:09:58.347Z,100919
2015-05-09T03:10:16.615Z,100919
2015-05-09T03:10:34.880Z,100927
2015-05-09T03:10:53.130Z,100919
2015-05-09T03:11:11.398Z,100913
2015-05-09T03:11:29.664Z,100922
2015-05-09T03:11:47.914Z,100927
2015-05-09T03:12:06.164Z,100919
2015-05-09T03:12:24.416Z,100919
2015-05-09T03:12:42.681Z,100939
2015-05-09T03:13:00.931Z,100927
2015-05-09T03:13:19.184Z,100927
2015-05-09T03:13:37.434Z,100927
2015-05-09T03:13:55.684Z,100930
2015-05-09T03:14:13.936Z,100930
2015-05-09T03:14:32.186Z,100936
2015-05-09T03:14:50.452Z,100930
2015-05-09T03:15:08.702Z,100936
2015-05-09T03:15:26.955Z,100933
2015-05-09T03:15:45.205Z,100936
2015-05-09T03:16:03.470Z,100936
2015-05-09T03:16:21.721Z,100942
2015-05-09T03:16:39.971Z,100942
2015-05-09T03:16:58.221Z,100930
2015-05-09T03:17:16.490Z,100939
2015-05-09T03:17:34.740Z,100945
2015-05-09T03:17:52.990Z,100942
2015-05-09T03:18:11.256Z,100936
2015-05-09T03:18:29.509Z,100939
2015-05-09T03:18:47.774Z,100945
2015-05-09T03:19:06.024Z,100939
2015-05-09T03:19:24.276Z,100948
2015-05-09T03:19:42.542Z,100939
2015-05-09T03:20:00.792Z,100945
2015-05-09T03:20:19.060Z,100950
2015-05-09T03:20:37.310Z,100945
2015-05-09T03:20:55.560Z,100945
2015-05-09T03:21:13.825Z,100948
2015-05-09T03:21:32.078Z,100953
2015-05-09T03:21:50.328Z,100945
2015-05-09T03:22:08.594Z,100953
2015-05-09T03:22:26.846Z,100953
2015-05-09T03:22:45.096Z,100945
2015-05-09T03:23:03.361Z,100945
2015-05-09T03:23:21.613Z,100948
2015-05-09T03:23:39.863Z,100953
2015-05-09T03:23:58.113Z,100950
2015-05-09T03:24:16.379Z,100953
2015-05-09T03:24:34.647Z,100959
2015-05-09T03:24:52.897Z,100956
2015-05-09T03:25:11.162Z,100953
2015-05-09T03:25:29.415Z,100950
2015-05-09T03:25:47.681Z,100948
2015-05-09T03:26:05.931Z,100956
2015-05-09T03:26:24.181Z,100956
2015-05-09T03:26:42.449Z,100956
2015-05-09T03:27:00.699Z,100956
2015-05-09T03:27:18.949Z,100945
2015-05-09T03:27:37.217Z,100947
2015-05-09T03:27:55.467Z,100950
2015-05-09T03:28:13.733Z,100947
2015-05-09T03:28:31.983Z,100953
2015-05-09T03:28:50.235Z,100956
2015-05-09T03:29:08.500Z,100945
2015-05-09T03:29:26.750Z,100953
2015-05-09T03:29:45.003Z,100950
2015-05-09T03:30:03.253Z,100950
2015-05-09T03:30:21.519Z,100947
2015-05-09T03:30:39.769Z,100956
2015-05-09T03:30:58.021Z,100953
2015-05-09T03:31:16.287Z,100950
2015-05-09T03:31:34.537Z,100950
2015-05-09T03:31:52.820Z,100947
2015-05-09T03:32:11.054Z,100945
2015-05-09T03:32:29.320Z,100947
2015-05-09T03:32:47.573Z,100953
2015-05-09T03:33:05.823Z,100950
2015-05-09T03:33:24.073Z,100945
2015-05-09T03:33:42.339Z,100953
2015-05-09T03:34:00.591Z,100942
2015-05-09T03:34:18.856Z,100939
2015-05-09T03:34:37.106Z,100945
2015-05-09T03:34:55.374Z,100953
2015-05-09T03:35:13.624Z,100953
2015-05-09T03:35:31.874Z,100953
2015-05-09T03:35:50.127Z,100942
2015-05-09T03:36:08.392Z,100947
2015-05-09T03:36:26.642Z,100950
2015-05-09T03:36:44.908Z,100944
2015-05-09T03:37:03.160Z,100947
2015-05-09T03:37:21.410Z,100950
2015-05-09T03:37:39.676Z,100942
2015-05-09T03:37:57.929Z,100945
2015-05-09T03:38:16.194Z,100944
2015-05-09T03:38:34.444Z,100936
2015-05-09T03:38:52.712Z,100945
2015-05-09T03:39:10.962Z,100936
2015-05-09T03:39:29.071Z,100936
2015-05-09T03:39:47.321Z,100933
2015-05-09T03:40:05.573Z,100927
2015-05-09T03:40:23.839Z,100927
2015-05-09T03:40:42.105Z,100939
2015-05-09T03:41:00.357Z,100936
2015-05-09T03:41:18.607Z,100936
2015-05-09T03:41:36.872Z,100933
2015-05-09T03:41:55.125Z,100933
2015-05-09T03:42:13.375Z,100933
2015-05-09T03:42:31.625Z,100930
2015-05-09T03:42:49.875Z,100933
2015-05-09T03:43:08.144Z,100936
2015-05-09T03:43:26.394Z,100930
2015-05-09T03:43:44.644Z,100930
2015-05-09T03:44:02.911Z,100939
2015-05-09T03:44:21.161Z,100927
2015-05-09T03:44:39.411Z,100930
2015-05-09T03:44:57.679Z,100930
2015-05-09T03:45:15.929Z,100933
2015-05-09T03:45:34.195Z,100926
2015-05-09T03:45:52.445Z,100917
2015-05-09T03:46:10.697Z,100926
2015-05-09T03:46:28.962Z,100925
2015-05-09T03:46:47.212Z,100919
2015-05-09T03:47:05.465Z,100916
2015-05-09T03:47:23.715Z,100913
2015-05-09T03:47:41.981Z,100916